Terminal Aerodrome Forecast
Issued by NWS

Home | Current Version | Previous Version | Text Only | Print | Product List | Glossary On
Versions: 1 2 3 4 5 6 7 8 9 10 11 12
231
FTUS45 KREV 250640 AAA
TAFMMH
TAF AMD
KMMH 250640Z 2507/2606 VRB04KT P6SM FEW180
     FM251900 36009KT P6SM FEW100 SCT180
     FM260000 30010KT P6SM SCT180=

USA.gov is the U.S. government's official web portal to all federal, state and local government web resources and services.